createdAt,value
2018-12-23T00:02:06.293Z,75.84
2018-12-23T00:04:35.452Z,75.85
2018-12-23T00:07:04.680Z,75.72
2018-12-23T00:09:33.912Z,75.92
2018-12-23T00:12:03.124Z,75.71
2018-12-23T00:14:32.325Z,75.78
2018-12-23T00:17:01.482Z,75.86
2018-12-23T00:19:30.661Z,75.84
2018-12-23T00:21:59.849Z,75.85
2018-12-23T00:24:28.944Z,75.78
2018-12-23T00:26:58.190Z,75.59
2018-12-23T00:29:27.480Z,75.87
2018-12-23T00:31:56.649Z,75.84
2018-12-23T00:34:25.941Z,75.61
2018-12-23T00:36:55.188Z,75.70
2018-12-23T00:39:24.337Z,75.54
2018-12-23T00:41:53.738Z,75.86
2018-12-23T00:44:22.975Z,75.37
2018-12-23T00:46:52.191Z,74.94
2018-12-23T00:49:21.383Z,75.09
2018-12-23T00:51:50.659Z,74.94
2018-12-23T00:54:19.872Z,74.67
2018-12-23T00:56:49.064Z,74.83
2018-12-23T00:59:18.232Z,74.46
2018-12-23T01:01:47.356Z,74.47
2018-12-23T01:04:16.500Z,74.41
2018-12-23T01:06:45.695Z,74.14
2018-12-23T01:09:14.934Z,74.53
2018-12-23T01:11:44.179Z,74.72
2018-12-23T01:14:13.324Z,74.74
2018-12-23T01:16:42.461Z,75.04
2018-12-23T01:19:11.652Z,75.14
2018-12-23T01:21:40.848Z,75.12
2018-12-23T01:24:10.071Z,74.78
2018-12-23T01:26:39.315Z,74.74
2018-12-23T01:29:08.584Z,74.70
2018-12-23T01:31:37.735Z,74.59
2018-12-23T01:34:06.973Z,74.49
2018-12-23T01:36:36.178Z,74.69
2018-12-23T01:39:06.841Z,74.84
2018-12-23T01:41:36.016Z,74.90
2018-12-23T01:44:05.154Z,75.23
2018-12-23T01:46:34.377Z,75.12
2018-12-23T01:49:03.620Z,74.63
2018-12-23T01:51:32.905Z,75.06
2018-12-23T01:54:02.467Z,74.78
2018-12-23T01:56:31.812Z,74.41
2018-12-23T01:59:01.017Z,74.35
2018-12-23T02:01:30.293Z,74.57
2018-12-23T02:03:59.476Z,74.40
2018-12-23T02:06:28.721Z,73.98
2018-12-23T02:08:57.984Z,74.34
2018-12-23T02:11:27.232Z,74.11
2018-12-23T02:13:56.396Z,73.83
2018-12-23T02:16:25.541Z,74.05
2018-12-23T02:18:54.810Z,73.95
2018-12-23T02:21:24.075Z,73.86
2018-12-23T02:23:53.189Z,73.50
2018-12-23T02:26:22.461Z,73.41
2018-12-23T02:28:51.698Z,73.49
2018-12-23T02:31:20.885Z,73.02
2018-12-23T02:33:50.031Z,73.16
2018-12-23T02:36:19.197Z,73.36
2018-12-23T02:38:48.615Z,73.12
2018-12-23T02:41:17.820Z,73.44
2018-12-23T02:43:47.010Z,72.94
2018-12-23T02:46:16.260Z,73.31
2018-12-23T02:48:45.814Z,73.34
2018-12-23T02:51:15.017Z,73.41
2018-12-23T02:53:44.466Z,73.22
2018-12-23T02:56:13.690Z,73.18
2018-12-23T02:58:42.947Z,73.31
2018-12-23T03:01:12.138Z,73.26
2018-12-23T03:03:41.401Z,73.18
2018-12-23T03:06:10.575Z,73.07
2018-12-23T03:08:39.664Z,73.22
2018-12-23T03:11:08.816Z,73.05
2018-12-23T03:13:38.010Z,72.65
2018-12-23T03:16:07.204Z,72.72
2018-12-23T03:18:36.430Z,72.94
2018-12-23T03:21:05.674Z,73.27
2018-12-23T03:23:34.806Z,73.15
2018-12-23T03:26:04.047Z,73.09
2018-12-23T03:28:33.225Z,73.08
2018-12-23T03:31:02.515Z,72.97
2018-12-23T03:33:31.704Z,72.97
2018-12-23T03:36:00.772Z,72.93
2018-12-23T03:38:29.880Z,72.48
2018-12-23T03:40:59.091Z,72.54
2018-12-23T03:43:28.344Z,72.07
2018-12-23T03:45:57.487Z,72.46
2018-12-23T03:48:26.697Z,72.34
2018-12-23T03:50:55.922Z,72.74
2018-12-23T03:53:25.003Z,73.17
2018-12-23T03:55:54.184Z,73.10
2018-12-23T03:58:23.354Z,72.88
2018-12-23T04:00:52.564Z,73.03
2018-12-23T04:03:21.735Z,72.97
2018-12-23T04:05:50.867Z,72.96
2018-12-23T04:08:20.076Z,72.90
2018-12-23T04:10:49.241Z,73.05
2018-12-23T04:13:18.380Z,73.14
2018-12-23T04:15:47.573Z,73.11
2018-12-23T04:18:16.842Z,72.77
2018-12-23T04:20:46.092Z,72.64
2018-12-23T04:23:15.188Z,72.65
2018-12-23T04:25:44.373Z,73.28
2018-12-23T04:28:13.557Z,73.54
2018-12-23T04:30:42.803Z,73.80
2018-12-23T04:33:11.934Z,73.60
2018-12-23T04:35:41.136Z,73.64
2018-12-23T04:38:10.301Z,73.45
2018-12-23T04:40:39.460Z,73.29
2018-12-23T04:43:08.698Z,73.00
2018-12-23T04:45:38.127Z,72.96
2018-12-23T04:48:07.398Z,72.88
2018-12-23T04:50:36.746Z,73.07
2018-12-23T04:53:06.026Z,73.08
2018-12-23T04:55:35.393Z,73.18
2018-12-23T04:58:47.991Z,73.27
2018-12-23T05:01:37.614Z,73.30
2018-12-23T05:04:27.145Z,73.24
2018-12-23T05:07:16.741Z,73.22
2018-12-23T05:10:06.267Z,73.50
2018-12-23T05:12:56.102Z,73.81
2018-12-23T05:15:45.654Z,74.04
2018-12-23T05:18:35.214Z,74.00
2018-12-23T05:21:24.742Z,74.15
2018-12-23T05:24:14.273Z,74.14
2018-12-23T05:27:04.116Z,74.07
2018-12-23T05:29:53.637Z,74.26
2018-12-23T05:32:43.142Z,74.41
2018-12-23T05:35:33.521Z,74.34
2018-12-23T05:38:41.940Z,74.22
2018-12-23T05:41:31.441Z,74.06
2018-12-23T05:44:20.976Z,73.93
2018-12-23T05:47:10.544Z,73.78
2018-12-23T05:49:53.090Z,73.66
2018-12-23T05:52:42.581Z,73.75
2018-12-23T05:55:30.713Z,73.67
2018-12-23T05:58:20.220Z,74.07
2018-12-23T06:01:09.749Z,74.21
2018-12-23T06:03:59.579Z,74.32
2018-12-23T06:06:49.177Z,74.38
2018-12-23T06:09:39.030Z,74.41
2018-12-23T06:12:47.500Z,74.17
2018-12-23T06:15:37.028Z,73.99
2018-12-23T06:18:26.849Z,73.62
2018-12-23T06:21:16.372Z,73.68
2018-12-23T06:24:05.936Z,73.49
2018-12-23T06:26:55.765Z,73.48
2018-12-23T06:29:45.585Z,73.41
2018-12-23T06:35:43.425Z,73.06
2018-12-23T06:38:51.915Z,72.86
2018-12-23T06:41:41.643Z,72.67
2018-12-23T06:44:31.458Z,72.45
2018-12-23T06:47:21.649Z,72.16
2018-12-23T06:50:03.643Z,72.27
2018-12-23T06:52:46.013Z,72.18
2018-12-23T06:58:32.459Z,72.50
2018-12-23T07:01:22.038Z,72.61
2018-12-23T07:04:11.557Z,73.03
2018-12-23T07:07:01.135Z,73.05
2018-12-23T07:09:50.625Z,72.88
2018-12-23T07:12:40.449Z,72.80
2018-12-23T07:15:29.983Z,73.20
2018-12-23T07:18:19.485Z,73.39
2018-12-23T07:21:08.999Z,73.46
2018-12-23T07:23:58.599Z,73.50
2018-12-23T07:26:48.166Z,73.61
2018-12-23T07:29:37.905Z,73.69
2018-12-23T07:32:27.789Z,73.62
2018-12-23T07:35:17.335Z,73.52
2018-12-23T07:38:06.883Z,73.39
2018-12-23T07:40:56.486Z,73.01
2018-12-23T07:47:14.815Z,72.10
2018-12-23T07:49:56.841Z,71.87
2018-12-23T07:52:46.385Z,71.66
2018-12-23T07:55:35.925Z,71.46
2018-12-23T07:58:25.487Z,71.23
2018-12-23T08:01:14.995Z,71.11
2018-12-23T08:04:04.523Z,71.10
2018-12-23T08:06:54.511Z,70.87
2018-12-23T08:09:44.031Z,70.71
2018-12-23T08:12:33.589Z,70.58
2018-12-23T08:15:23.117Z,70.47
2018-12-23T08:18:12.676Z,70.46
2018-12-23T08:21:02.218Z,70.19
2018-12-23T08:23:51.783Z,70.03
2018-12-23T08:26:41.625Z,70.01
2018-12-23T08:29:31.297Z,69.57
2018-12-23T08:32:20.930Z,69.36
2018-12-23T08:35:10.442Z,69.45
2018-12-23T08:38:00.596Z,69.32
2018-12-23T08:40:50.135Z,69.11
2018-12-23T08:47:09.042Z,68.47
2018-12-23T08:49:58.569Z,68.38
2018-12-23T08:52:40.686Z,68.05
2018-12-23T08:55:30.206Z,67.96
2018-12-23T08:58:19.763Z,67.51
2018-12-23T09:01:09.271Z,67.54
2018-12-23T09:03:59.055Z,67.48
2018-12-23T09:06:48.593Z,67.41
2018-12-23T09:09:58.035Z,67.33
2018-12-23T09:12:47.562Z,67.26
2018-12-23T09:15:37.077Z,67.48
2018-12-23T09:18:26.602Z,67.05
2018-12-23T09:24:32.267Z,67.03
2018-12-23T09:27:21.835Z,66.68
2018-12-23T09:30:11.364Z,67.09
2018-12-23T09:33:00.894Z,66.96
2018-12-23T09:35:50.479Z,67.07
2018-12-23T09:38:40.017Z,66.79
2018-12-23T09:44:37.915Z,65.95
2018-12-23T09:47:27.500Z,66.14
2018-12-23T09:50:10.110Z,65.94
2018-12-23T09:52:59.662Z,66.20
2018-12-23T09:55:49.206Z,65.96
2018-12-23T09:58:38.735Z,65.88
2018-12-23T10:01:28.607Z,66.27
2018-12-23T10:04:18.137Z,66.07
2018-12-23T10:06:48.563Z,65.05
2018-12-23T10:09:19.049Z,64.83
2018-12-23T10:11:49.455Z,65.16
2018-12-23T10:14:20.637Z,65.18
2018-12-23T10:16:51.328Z,65.24
2018-12-23T10:19:22.986Z,65.77
2018-12-23T10:21:53.688Z,65.03
2018-12-23T10:24:24.149Z,64.82
2018-12-23T10:26:54.864Z,64.90
2018-12-23T10:29:25.426Z,64.79
2018-12-23T10:31:55.873Z,64.36
2018-12-23T10:34:26.267Z,64.28
2018-12-23T10:36:56.716Z,64.45
2018-12-23T10:39:27.417Z,64.25
2018-12-23T10:41:57.784Z,64.98
2018-12-23T10:44:28.215Z,64.22
2018-12-23T10:47:00.102Z,63.60
2018-12-23T10:49:30.758Z,63.56
2018-12-23T10:52:01.145Z,63.64
2018-12-23T10:54:31.593Z,63.66
2018-12-23T10:57:02.036Z,63.88
2018-12-23T10:59:32.462Z,63.60
2018-12-23T11:02:02.923Z,63.78
2018-12-23T11:04:33.277Z,62.98
2018-12-23T11:07:04.047Z,63.38
2018-12-23T11:09:34.411Z,62.79
2018-12-23T11:12:04.859Z,63.06
2018-12-23T11:14:35.338Z,63.05
2018-12-23T11:17:05.795Z,62.74
2018-12-23T11:19:36.199Z,62.77
2018-12-23T11:22:06.686Z,62.96
2018-12-23T11:24:37.071Z,63.07
2018-12-23T11:27:07.514Z,62.95
2018-12-23T11:29:37.899Z,63.13
2018-12-23T11:32:08.332Z,63.11
2018-12-23T11:34:38.751Z,62.38
2018-12-23T11:37:09.244Z,62.87
2018-12-23T11:39:39.983Z,62.66
2018-12-23T11:42:10.406Z,62.59
2018-12-23T11:44:40.779Z,63.14
2018-12-23T11:47:11.183Z,63.11
2018-12-23T11:49:41.985Z,63.24
2018-12-23T11:52:12.419Z,63.04
2018-12-23T11:54:43.184Z,63.00
2018-12-23T11:57:13.629Z,62.96
2018-12-23T11:59:44.042Z,62.96
2018-12-23T12:02:15.403Z,63.14
2018-12-23T12:04:46.120Z,63.00
2018-12-23T12:07:16.540Z,63.34
2018-12-23T12:09:46.948Z,63.60
2018-12-23T12:12:17.902Z,63.73
2018-12-23T12:14:48.303Z,63.73
2018-12-23T12:17:18.695Z,63.90
2018-12-23T12:19:49.113Z,63.43
2018-12-23T12:22:19.577Z,63.31
2018-12-23T12:24:50.174Z,63.61
2018-12-23T12:27:20.574Z,63.77
2018-12-23T12:29:51.265Z,63.97
2018-12-23T12:32:21.645Z,64.30
2018-12-23T12:34:52.121Z,64.02
2018-12-23T12:37:23.066Z,64.07
2018-12-23T12:39:53.543Z,63.87
2018-12-23T12:42:24.411Z,63.72
2018-12-23T12:44:54.849Z,63.76
2018-12-23T12:47:25.255Z,63.78
2018-12-23T12:49:55.631Z,64.34
2018-12-23T12:52:26.394Z,64.34
2018-12-23T12:54:56.795Z,64.23
2018-12-23T12:57:27.238Z,64.52
2018-12-23T12:59:57.675Z,64.79
2018-12-23T13:02:28.097Z,65.24
2018-12-23T13:04:58.509Z,65.09
2018-12-23T13:07:28.876Z,65.51
2018-12-23T13:09:59.312Z,65.84
2018-12-23T13:12:30.042Z,65.79
2018-12-23T13:15:00.550Z,65.71
2018-12-23T13:17:30.943Z,65.94
2018-12-23T13:20:01.320Z,66.16
2018-12-23T13:22:31.822Z,66.06
2018-12-23T13:25:02.294Z,66.03
2018-12-23T13:27:32.685Z,66.33
2018-12-23T13:30:03.110Z,66.66
2018-12-23T13:32:33.857Z,66.73
2018-12-23T13:35:04.381Z,66.77
2018-12-23T13:37:35.075Z,67.28
2018-12-23T13:40:58.239Z,67.29
2018-12-23T13:44:25.750Z,67.37
2018-12-23T13:47:40.008Z,67.33
2018-12-23T13:51:19.213Z,67.04
2018-12-23T13:54:49.677Z,67.05
2018-12-23T13:58:26.608Z,67.11
2018-12-23T14:01:38.677Z,67.40
2018-12-23T14:05:16.974Z,67.31
2018-12-23T14:08:32.302Z,67.44
2018-12-23T14:11:43.606Z,68.15
2018-12-23T14:14:13.988Z,67.67
2018-12-23T14:16:44.678Z,68.06
2018-12-23T14:19:15.122Z,68.19
2018-12-23T14:21:45.868Z,67.72
2018-12-23T14:24:16.247Z,67.82
2018-12-23T14:26:46.685Z,68.02
2018-12-23T14:29:17.293Z,67.63
2018-12-23T14:31:47.711Z,67.98
2018-12-23T14:34:18.110Z,68.13
2018-12-23T14:36:48.609Z,68.28
2018-12-23T14:39:26.120Z,68.33
2018-12-23T14:41:54.494Z,68.52
2018-12-23T14:44:24.650Z,68.55
2018-12-23T14:46:55.002Z,68.46
2018-12-23T14:49:25.473Z,68.69
2018-12-23T14:51:55.882Z,68.77
2018-12-23T14:54:26.243Z,68.91
2018-12-23T14:56:56.703Z,69.22
2018-12-23T14:59:27.341Z,69.27
2018-12-23T15:01:57.755Z,69.36
2018-12-23T15:04:28.256Z,69.61
2018-12-23T15:06:58.658Z,69.53
2018-12-23T15:09:34.171Z,69.79
2018-12-23T15:12:01.628Z,69.83
2018-12-23T15:14:32.396Z,70.19
2018-12-23T15:17:02.907Z,70.17
2018-12-23T15:19:33.316Z,70.24
2018-12-23T15:22:03.715Z,70.41
2018-12-23T15:24:34.122Z,70.27
2018-12-23T15:27:04.517Z,70.60
2018-12-23T15:29:34.941Z,70.89
2018-12-23T15:32:05.321Z,70.72
2018-12-23T15:34:35.895Z,70.79
2018-12-23T15:37:06.629Z,71.01
2018-12-23T15:39:42.610Z,71.11
2018-12-23T15:42:09.225Z,71.40
2018-12-23T15:44:39.651Z,71.26
2018-12-23T15:47:10.456Z,71.27
2018-12-23T15:49:41.179Z,71.42
2018-12-23T15:52:11.585Z,71.55
2018-12-23T15:54:46.232Z,71.56
2018-12-23T15:57:14.494Z,71.71
2018-12-23T15:59:44.927Z,71.59
2018-12-23T16:02:15.674Z,71.74
2018-12-23T16:04:46.179Z,71.99
2018-12-23T16:07:16.561Z,71.85
2018-12-23T16:09:51.162Z,72.12
2018-12-23T16:12:19.343Z,72.04
2018-12-23T16:14:49.788Z,72.12
2018-12-23T16:17:20.180Z,72.02
2018-12-23T16:19:50.769Z,71.72
2018-12-23T16:22:21.173Z,71.92
2018-12-23T16:24:51.604Z,71.98
2018-12-23T16:27:22.007Z,72.02
2018-12-23T16:29:52.707Z,71.81
2018-12-23T16:32:23.105Z,71.89
2018-12-23T16:34:53.484Z,71.69
2018-12-23T16:37:23.850Z,71.65
2018-12-23T16:39:59.529Z,71.95
2018-12-23T16:42:26.366Z,72.14
2018-12-23T16:44:57.034Z,72.96
2018-12-23T16:47:27.465Z,74.10
2018-12-23T16:49:57.848Z,72.63
2018-12-23T16:52:28.666Z,71.69
2018-12-23T16:54:59.051Z,71.44
2018-12-23T16:57:29.432Z,71.77
2018-12-23T16:59:59.828Z,71.86
2018-12-23T17:02:30.500Z,72.18
2018-12-23T17:05:00.845Z,72.24
2018-12-23T17:07:31.231Z,71.85
2018-12-23T17:10:08.212Z,71.86
2018-12-23T17:12:33.890Z,71.81
2018-12-23T17:15:04.385Z,72.19
2018-12-23T17:17:34.727Z,72.82
2018-12-23T17:20:06.894Z,73.05
2018-12-23T17:22:37.600Z,72.99
2018-12-23T17:25:07.983Z,73.12
2018-12-23T17:27:38.439Z,73.27
2018-12-23T17:30:09.998Z,73.32
2018-12-23T17:32:40.734Z,73.34
2018-12-23T17:35:11.101Z,73.43
2018-12-23T17:37:41.484Z,73.37
2018-12-23T17:40:16.441Z,73.46
2018-12-23T17:42:44.003Z,73.31
2018-12-23T17:45:14.382Z,73.36
2018-12-23T17:47:44.738Z,73.60
2018-12-23T17:50:15.148Z,73.40
2018-12-23T17:52:45.528Z,73.46
2018-12-23T17:55:16.147Z,73.75
2018-12-23T17:57:46.523Z,73.67
2018-12-23T18:00:16.901Z,73.56
2018-12-23T18:02:47.305Z,73.26
2018-12-23T18:05:17.708Z,73.18
2018-12-23T18:07:48.035Z,73.40
2018-12-23T18:10:25.018Z,73.46
2018-12-23T18:12:50.653Z,73.56
2018-12-23T18:15:21.091Z,73.14
2018-12-23T18:17:51.431Z,73.07
2018-12-23T18:20:21.803Z,73.31
2018-12-23T18:22:52.226Z,73.61
2018-12-23T18:25:22.602Z,73.88
2018-12-23T18:27:53.357Z,74.26
2018-12-23T18:30:23.739Z,74.23
2018-12-23T18:32:54.139Z,74.59
2018-12-23T18:35:24.598Z,74.62
2018-12-23T18:37:55.387Z,74.68
2018-12-23T18:40:33.120Z,74.81
2018-12-23T18:42:57.944Z,74.72
2018-12-23T18:45:28.703Z,74.66
2018-12-23T18:47:59.075Z,74.90
2018-12-23T18:50:29.437Z,74.96
2018-12-23T18:52:59.900Z,75.02
2018-12-23T18:55:35.357Z,75.13
2018-12-23T18:58:06.142Z,75.42
2018-12-23T19:00:36.571Z,75.54
2018-12-23T19:03:07.313Z,75.58
2018-12-23T19:05:37.710Z,75.28
2018-12-23T19:08:14.742Z,75.46
2018-12-23T19:11:41.709Z,75.62
2018-12-23T19:15:29.517Z,75.69
2018-12-23T19:19:05.351Z,75.90
2018-12-23T19:22:34.760Z,75.96
2018-12-23T19:26:15.898Z,76.02
2018-12-23T19:29:37.131Z,76.12
2018-12-23T19:32:54.394Z,76.11
2018-12-23T19:36:19.405Z,76.12
2018-12-23T19:39:41.431Z,76.09
2018-12-23T19:43:12.419Z,76.09
2018-12-23T19:46:37.216Z,76.16
2018-12-23T19:49:51.209Z,76.12
2018-12-23T19:53:16.598Z,75.97
2018-12-23T19:56:44.578Z,75.84
2018-12-23T20:00:23.508Z,75.71
2018-12-23T20:03:37.609Z,75.53
2018-12-23T20:06:55.403Z,75.33
2018-12-23T20:09:58.018Z,75.22
2018-12-23T20:13:17.012Z,75.40
2018-12-23T20:16:31.907Z,75.31
2018-12-23T20:19:55.429Z,75.17
2018-12-23T20:23:10.661Z,74.91
2018-12-23T20:26:49.707Z,75.17
2018-12-23T20:30:08.455Z,75.14
2018-12-23T20:33:36.980Z,75.55
2018-12-23T20:37:02.706Z,75.61
2018-12-23T20:40:27.693Z,75.69
2018-12-23T20:43:38.050Z,75.75
2018-12-23T20:47:02.115Z,75.78
2018-12-23T20:50:28.403Z,75.78
2018-12-23T20:54:17.097Z,75.84
2018-12-23T20:57:36.438Z,75.88
2018-12-23T21:00:55.307Z,75.99
2018-12-23T21:04:32.695Z,76.12
2018-12-23T21:08:24.606Z,76.41
2018-12-23T21:12:08.418Z,76.59
2018-12-23T21:15:25.929Z,76.67
2018-12-23T21:18:57.433Z,76.67
2018-12-23T21:22:06.691Z,76.64
2018-12-23T21:25:11.114Z,76.63
2018-12-23T21:28:25.558Z,76.52
2018-12-23T21:31:36.158Z,76.43
2018-12-23T21:35:14.040Z,76.64
2018-12-23T21:38:17.630Z,76.71
2018-12-23T21:41:39.463Z,76.73
2018-12-23T21:45:15.441Z,76.79
2018-12-23T21:48:39.777Z,77.08
2018-12-23T21:52:09.453Z,77.24
2018-12-23T21:55:41.437Z,77.32
2018-12-23T21:58:58.258Z,77.18
2018-12-23T22:02:09.664Z,77.35
2018-12-23T22:05:07.990Z,77.49
2018-12-23T22:08:35.853Z,77.55
2018-12-23T22:12:03.705Z,77.46
2018-12-23T22:14:53.233Z,77.49
2018-12-23T22:17:42.765Z,77.50
2018-12-23T22:20:32.292Z,77.56
2018-12-23T22:23:21.890Z,77.65
2018-12-23T22:26:11.748Z,77.71
2018-12-23T22:29:01.306Z,77.79
2018-12-23T22:31:50.796Z,77.81
2018-12-23T22:34:40.324Z,77.78
2018-12-23T22:37:29.842Z,77.84
2018-12-23T22:40:19.440Z,77.81
2018-12-23T22:43:09.207Z,77.74
2018-12-23T22:46:17.594Z,77.65
2018-12-23T22:49:07.095Z,77.59
2018-12-23T22:51:56.700Z,77.63
2018-12-23T22:54:46.346Z,77.73
2018-12-23T22:57:29.011Z,77.82
2018-12-23T23:03:15.515Z,77.66
2018-12-23T23:06:05.187Z,77.69
2018-12-23T23:08:54.717Z,77.67
2018-12-23T23:11:49.760Z,77.82
2018-12-23T23:14:35.570Z,77.98
2018-12-23T23:17:25.072Z,78.05
2018-12-23T23:20:14.611Z,78.20
2018-12-23T23:23:04.099Z,78.37
2018-12-23T23:25:53.658Z,78.53
2018-12-23T23:28:43.181Z,78.62
2018-12-23T23:31:32.703Z,78.75
2018-12-23T23:34:22.195Z,78.88
2018-12-23T23:37:11.735Z,78.96
2018-12-23T23:40:01.513Z,78.92
2018-12-23T23:42:51.070Z,78.98
2018-12-23T23:45:40.556Z,79.00
2018-12-23T23:48:30.342Z,78.97
2018-12-23T23:51:19.849Z,78.85
2018-12-23T23:54:09.406Z,78.85
2018-12-23T23:56:58.958Z,78.75
2018-12-23T23:59:48.480Z,78.76
